Terminal Aerodrome Forecast
Issued by NWS

Home | Current Version | Previous Version | Text Only | Print | Product List | Glossary On
Versions: 1 2 3 4 5 6 7 8 9 10 11 12 13 14 15 16
000
FTUS45 KTFX 211700
TAFHVR
TAF
KHVR 211736Z 2118/2218 32007KT P6SM VCSH SCT020 OVC050
      TEMPO 2118/2122 -SHRA BKN020
     FM220800 04008KT P6SM -RA SCT008 OVC015=

USA.gov is the U.S. government's official web portal to all federal, state and local government web resources and services.